sensor_id;sensor_type;location;lat;lon;timestamp;P1;durP1;ratioP1;P2;durP2;ratioP2
16965;SDS011;8599;47.852;12.070;2022-11-20T00:01:23;1.20;;;0.87;;
16965;SDS011;8599;47.852;12.070;2022-11-20T00:03:51;1.23;;;0.80;;
16965;SDS011;8599;47.852;12.070;2022-11-20T00:06:21;2.53;;;1.03;;
16965;SDS011;8599;47.852;12.070;2022-11-20T00:08:48;0.77;;;0.77;;
16965;SDS011;8599;47.852;12.070;2022-11-20T00:11:16;0.60;;;0.60;;
16965;SDS011;8599;47.852;12.070;2022-11-20T00:13:44;1.17;;;0.90;;
16965;SDS011;8599;47.852;12.070;2022-11-20T00:16:13;0.73;;;0.60;;
16965;SDS011;8599;47.852;12.070;2022-11-20T00:18:41;4.13;;;1.63;;
16965;SDS011;8599;47.852;12.070;2022-11-20T00:21:10;1.23;;;0.70;;
16965;SDS011;8599;47.852;12.070;2022-11-20T00:23:39;0.70;;;0.70;;
16965;SDS011;8599;47.852;12.070;2022-11-20T00:26:07;0.60;;;0.60;;
16965;SDS011;8599;47.852;12.070;2022-11-20T00:28:35;0.93;;;0.77;;
16965;SDS011;8599;47.852;12.070;2022-11-20T00:31:03;0.73;;;0.70;;
16965;SDS011;8599;47.852;12.070;2022-11-20T00:33:31;0.70;;;0.70;;
16965;SDS011;8599;47.852;12.070;2022-11-20T00:36:01;1.57;;;0.90;;
16965;SDS011;8599;47.852;12.070;2022-11-20T00:38:28;1.13;;;0.70;;
16965;SDS011;8599;47.852;12.070;2022-11-20T00:40:57;1.03;;;0.87;;
16965;SDS011;8599;47.852;12.070;2022-11-20T00:43:25;0.63;;;0.63;;
16965;SDS011;8599;47.852;12.070;2022-11-20T00:45:56;0.70;;;0.70;;
16965;SDS011;8599;47.852;12.070;2022-11-20T00:48:23;0.80;;;0.80;;
16965;SDS011;8599;47.852;12.070;2022-11-20T00:50:50;1.17;;;0.90;;
16965;SDS011;8599;47.852;12.070;2022-11-20T00:53:17;2.17;;;0.60;;
16965;SDS011;8599;47.852;12.070;2022-11-20T00:55:51;2.90;;;0.80;;
16965;SDS011;8599;47.852;12.070;2022-11-20T00:58:21;1.23;;;0.90;;
16965;SDS011;8599;47.852;12.070;2022-11-20T01:00:48;2.10;;;0.70;;
16965;SDS011;8599;47.852;12.070;2022-11-20T01:03:15;0.80;;;0.80;;
16965;SDS011;8599;47.852;12.070;2022-11-20T01:05:42;1.20;;;0.80;;
16965;SDS011;8599;47.852;12.070;2022-11-20T01:08:09;1.50;;;0.67;;
16965;SDS011;8599;47.852;12.070;2022-11-20T01:10:36;0.67;;;0.67;;
16965;SDS011;8599;47.852;12.070;2022-11-20T01:13:03;0.87;;;0.87;;
16965;SDS011;8599;47.852;12.070;2022-11-20T01:15:48;0.67;;;0.67;;
16965;SDS011;8599;47.852;12.070;2022-11-20T01:18:15;0.70;;;0.70;;
16965;SDS011;8599;47.852;12.070;2022-11-20T01:20:42;1.00;;;0.93;;
16965;SDS011;8599;47.852;12.070;2022-11-20T01:23:09;0.60;;;0.60;;
16965;SDS011;8599;47.852;12.070;2022-11-20T01:25:36;5.00;;;1.10;;
16965;SDS011;8599;47.852;12.070;2022-11-20T01:28:02;1.03;;;0.93;;
16965;SDS011;8599;47.852;12.070;2022-11-20T01:30:29;0.90;;;0.80;;
16965;SDS011;8599;47.852;12.070;2022-11-20T01:32:57;0.70;;;0.70;;
16965;SDS011;8599;47.852;12.070;2022-11-20T01:35:24;1.93;;;0.87;;
16965;SDS011;8599;47.852;12.070;2022-11-20T01:37:51;2.83;;;0.90;;
16965;SDS011;8599;47.852;12.070;2022-11-20T01:40:18;0.60;;;0.60;;
16965;SDS011;8599;47.852;12.070;2022-11-20T01:42:46;1.30;;;0.70;;
16965;SDS011;8599;47.852;12.070;2022-11-20T01:45:44;1.00;;;1.00;;
16965;SDS011;8599;47.852;12.070;2022-11-20T01:48:40;0.70;;;0.70;;
16965;SDS011;8599;47.852;12.070;2022-11-20T01:51:12;3.50;;;0.70;;
16965;SDS011;8599;47.852;12.070;2022-11-20T01:53:44;0.83;;;0.83;;
16965;SDS011;8599;47.852;12.070;2022-11-20T01:56:12;0.70;;;0.70;;
16965;SDS011;8599;47.852;12.070;2022-11-20T01:58:42;0.60;;;0.60;;
16965;SDS011;8599;47.852;12.070;2022-11-20T02:01:14;0.70;;;0.70;;
16965;SDS011;8599;47.852;12.070;2022-11-20T02:03:42;1.73;;;1.20;;
16965;SDS011;8599;47.852;12.070;2022-11-20T02:06:11;0.70;;;0.70;;
16965;SDS011;8599;47.852;12.070;2022-11-20T02:08:42;0.57;;;0.57;;
16965;SDS011;8599;47.852;12.070;2022-11-20T02:11:09;2.20;;;1.10;;
16965;SDS011;8599;47.852;12.070;2022-11-20T02:13:37;1.00;;;0.90;;
16965;SDS011;8599;47.852;12.070;2022-11-20T02:16:14;0.87;;;0.80;;
16965;SDS011;8599;47.852;12.070;2022-11-20T02:18:44;0.80;;;0.80;;
16965;SDS011;8599;47.852;12.070;2022-11-20T02:21:14;0.70;;;0.70;;
16965;SDS011;8599;47.852;12.070;2022-11-20T02:23:57;1.20;;;1.00;;
16965;SDS011;8599;47.852;12.070;2022-11-20T02:26:30;2.40;;;1.10;;
16965;SDS011;8599;47.852;12.070;2022-11-20T02:29:00;0.67;;;0.67;;
16965;SDS011;8599;47.852;12.070;2022-11-20T02:31:28;1.10;;;1.00;;
16965;SDS011;8599;47.852;12.070;2022-11-20T02:33:55;0.93;;;0.93;;
16965;SDS011;8599;47.852;12.070;2022-11-20T02:36:23;0.73;;;0.73;;
16965;SDS011;8599;47.852;12.070;2022-11-20T02:38:52;0.90;;;0.80;;
16965;SDS011;8599;47.852;12.070;2022-11-20T02:41:21;3.40;;;0.70;;
16965;SDS011;8599;47.852;12.070;2022-11-20T02:43:56;1.17;;;1.00;;
16965;SDS011;8599;47.852;12.070;2022-11-20T02:46:22;0.80;;;0.80;;
16965;SDS011;8599;47.852;12.070;2022-11-20T02:48:49;0.80;;;0.80;;
16965;SDS011;8599;47.852;12.070;2022-11-20T02:51:16;1.97;;;0.70;;
16965;SDS011;8599;47.852;12.070;2022-11-20T02:53:43;0.73;;;0.73;;
16965;SDS011;8599;47.852;12.070;2022-11-20T02:56:10;0.87;;;0.63;;
16965;SDS011;8599;47.852;12.070;2022-11-20T02:58:38;1.60;;;0.90;;
16965;SDS011;8599;47.852;12.070;2022-11-20T03:01:05;1.00;;;1.00;;
16965;SDS011;8599;47.852;12.070;2022-11-20T03:03:32;1.13;;;0.83;;
16965;SDS011;8599;47.852;12.070;2022-11-20T03:05:59;2.27;;;1.07;;
16965;SDS011;8599;47.852;12.070;2022-11-20T03:08:26;0.73;;;0.73;;
16965;SDS011;8599;47.852;12.070;2022-11-20T03:10:53;1.00;;;1.00;;
16965;SDS011;8599;47.852;12.070;2022-11-20T03:13:20;5.67;;;1.10;;
16965;SDS011;8599;47.852;12.070;2022-11-20T03:15:48;1.43;;;1.10;;
16965;SDS011;8599;47.852;12.070;2022-11-20T03:18:15;0.73;;;0.73;;
16965;SDS011;8599;47.852;12.070;2022-11-20T03:20:42;0.70;;;0.70;;
16965;SDS011;8599;47.852;12.070;2022-11-20T03:23:08;1.10;;;1.00;;
16965;SDS011;8599;47.852;12.070;2022-11-20T03:25:36;1.10;;;1.00;;
16965;SDS011;8599;47.852;12.070;2022-11-20T03:28:03;1.13;;;0.90;;
16965;SDS011;8599;47.852;12.070;2022-11-20T03:30:30;1.00;;;0.80;;
16965;SDS011;8599;47.852;12.070;2022-11-20T03:32:58;0.97;;;0.90;;
16965;SDS011;8599;47.852;12.070;2022-11-20T03:35:25;0.93;;;0.93;;
16965;SDS011;8599;47.852;12.070;2022-11-20T03:37:52;2.30;;;1.33;;
16965;SDS011;8599;47.852;12.070;2022-11-20T03:40:19;0.80;;;0.80;;
16965;SDS011;8599;47.852;12.070;2022-11-20T03:42:46;1.40;;;1.23;;
16965;SDS011;8599;47.852;12.070;2022-11-20T03:45:13;0.67;;;0.67;;
16965;SDS011;8599;47.852;12.070;2022-11-20T03:47:41;1.70;;;0.90;;
16965;SDS011;8599;47.852;12.070;2022-11-20T03:50:10;1.60;;;1.20;;
16965;SDS011;8599;47.852;12.070;2022-11-20T03:52:39;1.00;;;1.00;;
16965;SDS011;8599;47.852;12.070;2022-11-20T03:55:06;2.17;;;1.40;;
16965;SDS011;8599;47.852;12.070;2022-11-20T03:57:34;1.53;;;1.30;;
16965;SDS011;8599;47.852;12.070;2022-11-20T04:00:00;4.43;;;1.10;;
16965;SDS011;8599;47.852;12.070;2022-11-20T04:02:28;1.20;;;1.10;;
16965;SDS011;8599;47.852;12.070;2022-11-20T04:04:55;1.40;;;1.10;;
16965;SDS011;8599;47.852;12.070;2022-11-20T04:07:23;0.87;;;0.87;;
16965;SDS011;8599;47.852;12.070;2022-11-20T04:09:50;1.70;;;1.17;;
16965;SDS011;8599;47.852;12.070;2022-11-20T04:12:17;1.10;;;1.00;;
16965;SDS011;8599;47.852;12.070;2022-11-20T04:14:43;1.30;;;1.20;;
16965;SDS011;8599;47.852;12.070;2022-11-20T04:17:10;1.57;;;1.47;;
16965;SDS011;8599;47.852;12.070;2022-11-20T04:19:37;3.23;;;1.27;;
16965;SDS011;8599;47.852;12.070;2022-11-20T04:22:04;1.40;;;1.30;;
16965;SDS011;8599;47.852;12.070;2022-11-20T04:24:32;2.70;;;1.40;;
16965;SDS011;8599;47.852;12.070;2022-11-20T04:26:59;1.20;;;1.07;;
16965;SDS011;8599;47.852;12.070;2022-11-20T04:29:26;1.00;;;1.00;;
16965;SDS011;8599;47.852;12.070;2022-11-20T04:31:53;1.27;;;1.17;;
16965;SDS011;8599;47.852;12.070;2022-11-20T04:34:19;2.13;;;1.50;;
16965;SDS011;8599;47.852;12.070;2022-11-20T04:36:46;1.37;;;1.27;;
16965;SDS011;8599;47.852;12.070;2022-11-20T04:39:14;1.50;;;1.40;;
16965;SDS011;8599;47.852;12.070;2022-11-20T04:41:43;1.07;;;0.97;;
16965;SDS011;8599;47.852;12.070;2022-11-20T04:44:10;2.90;;;1.57;;
16965;SDS011;8599;47.852;12.070;2022-11-20T04:46:37;2.63;;;2.00;;
16965;SDS011;8599;47.852;12.070;2022-11-20T04:49:06;1.50;;;1.40;;
16965;SDS011;8599;47.852;12.070;2022-11-20T04:51:33;2.67;;;1.50;;
16965;SDS011;8599;47.852;12.070;2022-11-20T04:54:00;1.70;;;1.30;;
16965;SDS011;8599;47.852;12.070;2022-11-20T04:56:27;3.73;;;1.60;;
16965;SDS011;8599;47.852;12.070;2022-11-20T04:58:55;1.40;;;1.17;;
16965;SDS011;8599;47.852;12.070;2022-11-20T05:01:26;3.07;;;1.50;;
16965;SDS011;8599;47.852;12.070;2022-11-20T05:03:53;2.13;;;1.30;;
16965;SDS011;8599;47.852;12.070;2022-11-20T05:06:20;1.50;;;1.40;;
16965;SDS011;8599;47.852;12.070;2022-11-20T05:08:48;1.50;;;1.40;;
16965;SDS011;8599;47.852;12.070;2022-11-20T05:11:16;1.97;;;1.60;;
16965;SDS011;8599;47.852;12.070;2022-11-20T05:13:44;3.07;;;1.53;;
16965;SDS011;8599;47.852;12.070;2022-11-20T05:16:13;1.50;;;1.37;;
16965;SDS011;8599;47.852;12.070;2022-11-20T05:18:41;2.30;;;1.27;;
16965;SDS011;8599;47.852;12.070;2022-11-20T05:21:09;2.23;;;1.30;;
16965;SDS011;8599;47.852;12.070;2022-11-20T05:23:37;2.00;;;1.77;;
16965;SDS011;8599;47.852;12.070;2022-11-20T05:26:04;2.77;;;2.00;;
16965;SDS011;8599;47.852;12.070;2022-11-20T05:28:33;1.83;;;1.40;;
16965;SDS011;8599;47.852;12.070;2022-11-20T05:31:04;4.50;;;3.00;;
16965;SDS011;8599;47.852;12.070;2022-11-20T05:33:33;6.00;;;3.17;;
16965;SDS011;8599;47.852;12.070;2022-11-20T05:36:01;2.20;;;1.77;;
16965;SDS011;8599;47.852;12.070;2022-11-20T05:38:29;2.00;;;1.80;;
16965;SDS011;8599;47.852;12.070;2022-11-20T05:41:02;3.30;;;2.10;;
16965;SDS011;8599;47.852;12.070;2022-11-20T05:43:31;4.30;;;2.90;;
16965;SDS011;8599;47.852;12.070;2022-11-20T05:45:58;2.30;;;1.77;;
16965;SDS011;8599;47.852;12.070;2022-11-20T05:48:25;2.10;;;1.87;;
16965;SDS011;8599;47.852;12.070;2022-11-20T05:50:53;1.97;;;1.87;;
16965;SDS011;8599;47.852;12.070;2022-11-20T05:53:20;4.20;;;1.90;;
16965;SDS011;8599;47.852;12.070;2022-11-20T05:55:55;1.80;;;1.70;;
16965;SDS011;8599;47.852;12.070;2022-11-20T05:58:22;4.10;;;2.20;;
16965;SDS011;8599;47.852;12.070;2022-11-20T06:00:49;3.13;;;2.10;;
16965;SDS011;8599;47.852;12.070;2022-11-20T06:03:16;6.73;;;2.97;;
16965;SDS011;8599;47.852;12.070;2022-11-20T06:05:43;2.80;;;1.87;;
16965;SDS011;8599;47.852;12.070;2022-11-20T06:08:11;2.33;;;1.80;;
16965;SDS011;8599;47.852;12.070;2022-11-20T06:10:38;4.13;;;1.80;;
16965;SDS011;8599;47.852;12.070;2022-11-20T06:13:05;1.83;;;1.53;;
16965;SDS011;8599;47.852;12.070;2022-11-20T06:15:32;3.93;;;1.47;;
16965;SDS011;8599;47.852;12.070;2022-11-20T06:17:59;1.70;;;1.60;;
16965;SDS011;8599;47.852;12.070;2022-11-20T06:20:25;5.17;;;1.63;;
16965;SDS011;8599;47.852;12.070;2022-11-20T06:22:52;3.80;;;1.63;;
16965;SDS011;8599;47.852;12.070;2022-11-20T06:25:20;1.90;;;1.63;;
16965;SDS011;8599;47.852;12.070;2022-11-20T06:27:47;1.63;;;1.53;;
16965;SDS011;8599;47.852;12.070;2022-11-20T06:30:14;2.23;;;1.60;;
16965;SDS011;8599;47.852;12.070;2022-11-20T06:32:41;2.13;;;1.93;;
16965;SDS011;8599;47.852;12.070;2022-11-20T06:35:09;2.00;;;1.70;;
16965;SDS011;8599;47.852;12.070;2022-11-20T06:37:36;2.23;;;1.40;;
16965;SDS011;8599;47.852;12.070;2022-11-20T06:40:03;5.43;;;2.13;;
16965;SDS011;8599;47.852;12.070;2022-11-20T06:42:32;2.17;;;1.73;;
16965;SDS011;8599;47.852;12.070;2022-11-20T06:44:59;1.70;;;1.60;;
16965;SDS011;8599;47.852;12.070;2022-11-20T06:47:26;2.97;;;2.10;;
16965;SDS011;8599;47.852;12.070;2022-11-20T06:49:52;1.43;;;1.30;;
16965;SDS011;8599;47.852;12.070;2022-11-20T06:52:19;1.50;;;1.37;;
16965;SDS011;8599;47.852;12.070;2022-11-20T06:54:46;1.90;;;1.70;;
16965;SDS011;8599;47.852;12.070;2022-11-20T06:57:13;2.60;;;2.40;;
16965;SDS011;8599;47.852;12.070;2022-11-20T06:59:41;1.60;;;1.50;;
16965;SDS011;8599;47.852;12.070;2022-11-20T07:02:09;2.03;;;1.73;;
16965;SDS011;8599;47.852;12.070;2022-11-20T07:04:37;3.47;;;1.57;;
16965;SDS011;8599;47.852;12.070;2022-11-20T07:07:04;2.97;;;1.40;;
16965;SDS011;8599;47.852;12.070;2022-11-20T07:09:31;3.03;;;1.33;;
16965;SDS011;8599;47.852;12.070;2022-11-20T07:11:58;3.27;;;1.80;;
16965;SDS011;8599;47.852;12.070;2022-11-20T07:14:25;1.50;;;1.40;;
16965;SDS011;8599;47.852;12.070;2022-11-20T07:16:54;3.97;;;2.27;;
16965;SDS011;8599;47.852;12.070;2022-11-20T07:19:20;1.57;;;1.33;;
16965;SDS011;8599;47.852;12.070;2022-11-20T07:21:47;1.83;;;1.50;;
16965;SDS011;8599;47.852;12.070;2022-11-20T07:24:14;2.40;;;1.90;;
16965;SDS011;8599;47.852;12.070;2022-11-20T07:26:41;1.90;;;1.80;;
16965;SDS011;8599;47.852;12.070;2022-11-20T07:29:08;2.50;;;1.70;;
16965;SDS011;8599;47.852;12.070;2022-11-20T07:31:35;2.77;;;2.13;;
16965;SDS011;8599;47.852;12.070;2022-11-20T07:34:03;4.83;;;2.50;;
16965;SDS011;8599;47.852;12.070;2022-11-20T07:36:30;2.90;;;2.17;;
16965;SDS011;8599;47.852;12.070;2022-11-20T07:38:57;2.30;;;2.10;;
16965;SDS011;8599;47.852;12.070;2022-11-20T07:41:23;1.83;;;1.63;;
16965;SDS011;8599;47.852;12.070;2022-11-20T07:43:50;3.93;;;2.60;;
16965;SDS011;8599;47.852;12.070;2022-11-20T07:46:17;4.27;;;1.90;;
16965;SDS011;8599;47.852;12.070;2022-11-20T07:48:44;2.40;;;1.97;;
16965;SDS011;8599;47.852;12.070;2022-11-20T07:51:12;1.70;;;1.60;;
16965;SDS011;8599;47.852;12.070;2022-11-20T07:53:39;1.63;;;1.20;;
16965;SDS011;8599;47.852;12.070;2022-11-20T07:56:06;3.53;;;1.70;;
16965;SDS011;8599;47.852;12.070;2022-11-20T07:58:33;1.67;;;1.50;;
16965;SDS011;8599;47.852;12.070;2022-11-20T08:01:02;1.47;;;1.37;;
16965;SDS011;8599;47.852;12.070;2022-11-20T08:03:30;1.53;;;1.43;;
16965;SDS011;8599;47.852;12.070;2022-11-20T08:05:58;1.57;;;1.47;;
16965;SDS011;8599;47.852;12.070;2022-11-20T08:08:27;1.40;;;1.30;;
16965;SDS011;8599;47.852;12.070;2022-11-20T08:10:56;1.30;;;1.17;;
16965;SDS011;8599;47.852;12.070;2022-11-20T08:13:43;1.73;;;1.33;;
16965;SDS011;8599;47.852;12.070;2022-11-20T08:16:27;1.43;;;1.20;;
16965;SDS011;8599;47.852;12.070;2022-11-20T08:18:54;1.17;;;1.17;;
16965;SDS011;8599;47.852;12.070;2022-11-20T08:21:21;2.40;;;1.30;;
16965;SDS011;8599;47.852;12.070;2022-11-20T08:23:50;2.63;;;1.47;;
16965;SDS011;8599;47.852;12.070;2022-11-20T08:26:17;2.93;;;1.40;;
16965;SDS011;8599;47.852;12.070;2022-11-20T08:28:44;2.50;;;2.10;;
16965;SDS011;8599;47.852;12.070;2022-11-20T08:31:11;1.30;;;1.20;;
16965;SDS011;8599;47.852;12.070;2022-11-20T08:33:37;2.47;;;0.77;;
16965;SDS011;8599;47.852;12.070;2022-11-20T08:36:05;3.63;;;0.90;;
16965;SDS011;8599;47.852;12.070;2022-11-20T08:38:33;0.80;;;0.80;;
16965;SDS011;8599;47.852;12.070;2022-11-20T08:41:01;1.70;;;0.80;;
16965;SDS011;8599;47.852;12.070;2022-11-20T08:43:47;0.60;;;0.60;;
16965;SDS011;8599;47.852;12.070;2022-11-20T08:46:14;0.63;;;0.63;;
16965;SDS011;8599;47.852;12.070;2022-11-20T08:48:41;0.70;;;0.70;;
16965;SDS011;8599;47.852;12.070;2022-11-20T08:51:09;4.57;;;0.93;;
16965;SDS011;8599;47.852;12.070;2022-11-20T08:53:36;0.60;;;0.60;;
16965;SDS011;8599;47.852;12.070;2022-11-20T08:56:05;0.40;;;0.40;;
16965;SDS011;8599;47.852;12.070;2022-11-20T08:58:32;1.00;;;1.00;;
16965;SDS011;8599;47.852;12.070;2022-11-20T09:01:00;0.63;;;0.63;;
16965;SDS011;8599;47.852;12.070;2022-11-20T09:03:26;0.80;;;0.80;;
16965;SDS011;8599;47.852;12.070;2022-11-20T09:05:56;0.83;;;0.73;;
16965;SDS011;8599;47.852;12.070;2022-11-20T09:08:24;0.57;;;0.57;;
16965;SDS011;8599;47.852;12.070;2022-11-20T09:10:51;1.47;;;0.40;;
16965;SDS011;8599;47.852;12.070;2022-11-20T09:13:19;0.70;;;0.70;;
16965;SDS011;8599;47.852;12.070;2022-11-20T09:15:47;0.63;;;0.47;;
16965;SDS011;8599;47.852;12.070;2022-11-20T09:18:18;0.50;;;0.50;;
16965;SDS011;8599;47.852;12.070;2022-11-20T09:20:45;0.87;;;0.60;;
16965;SDS011;8599;47.852;12.070;2022-11-20T09:23:12;0.57;;;0.50;;
16965;SDS011;8599;47.852;12.070;2022-11-20T09:25:39;0.40;;;0.40;;
16965;SDS011;8599;47.852;12.070;2022-11-20T09:28:05;0.40;;;0.40;;
16965;SDS011;8599;47.852;12.070;2022-11-20T09:30:34;1.03;;;0.40;;
16965;SDS011;8599;47.852;12.070;2022-11-20T09:33:00;1.43;;;1.13;;
16965;SDS011;8599;47.852;12.070;2022-11-20T09:35:29;0.87;;;0.77;;
16965;SDS011;8599;47.852;12.070;2022-11-20T09:37:56;3.20;;;1.30;;
16965;SDS011;8599;47.852;12.070;2022-11-20T09:40:24;2.73;;;1.90;;
16965;SDS011;8599;47.852;12.070;2022-11-20T09:42:55;4.20;;;1.90;;
16965;SDS011;8599;47.852;12.070;2022-11-20T09:45:28;3.80;;;1.80;;
16965;SDS011;8599;47.852;12.070;2022-11-20T09:48:14;1.87;;;1.47;;
16965;SDS011;8599;47.852;12.070;2022-11-20T09:50:49;1.07;;;0.77;;
16965;SDS011;8599;47.852;12.070;2022-11-20T09:53:23;1.33;;;0.77;;
16965;SDS011;8599;47.852;12.070;2022-11-20T09:55:59;1.80;;;0.50;;
16965;SDS011;8599;47.852;12.070;2022-11-20T09:58:29;0.97;;;0.70;;
16965;SDS011;8599;47.852;12.070;2022-11-20T10:01:03;0.40;;;0.40;;
16965;SDS011;8599;47.852;12.070;2022-11-20T10:03:39;0.50;;;0.50;;
16965;SDS011;8599;47.852;12.070;2022-11-20T10:06:16;0.37;;;0.37;;
16965;SDS011;8599;47.852;12.070;2022-11-20T10:08:48;0.50;;;0.50;;
16965;SDS011;8599;47.852;12.070;2022-11-20T10:11:27;0.60;;;0.30;;
16965;SDS011;8599;47.852;12.070;2022-11-20T10:14:04;0.20;;;0.20;;
16965;SDS011;8599;47.852;12.070;2022-11-20T10:16:44;0.63;;;0.43;;
16965;SDS011;8599;47.852;12.070;2022-11-20T10:19:29;0.30;;;0.30;;
16965;SDS011;8599;47.852;12.070;2022-11-20T10:22:10;0.67;;;0.67;;
16965;SDS011;8599;47.852;12.070;2022-11-20T10:24:52;0.90;;;0.57;;
16965;SDS011;8599;47.852;12.070;2022-11-20T10:30:19;0.40;;;0.40;;
16965;SDS011;8599;47.852;12.070;2022-11-20T10:32:52;0.80;;;0.53;;
16965;SDS011;8599;47.852;12.070;2022-11-20T10:35:21;1.33;;;0.60;;
16965;SDS011;8599;47.852;12.070;2022-11-20T10:37:55;1.43;;;0.73;;
16965;SDS011;8599;47.852;12.070;2022-11-20T10:40:27;1.90;;;0.70;;
16965;SDS011;8599;47.852;12.070;2022-11-20T10:42:59;0.47;;;0.47;;
16965;SDS011;8599;47.852;12.070;2022-11-20T10:45:33;3.47;;;1.17;;
16965;SDS011;8599;47.852;12.070;2022-11-20T10:48:09;0.73;;;0.50;;
16965;SDS011;8599;47.852;12.070;2022-11-20T10:50:43;3.00;;;1.80;;
16965;SDS011;8599;47.852;12.070;2022-11-20T10:53:21;2.60;;;1.10;;
16965;SDS011;8599;47.852;12.070;2022-11-20T10:56:05;2.10;;;1.10;;
16965;SDS011;8599;47.852;12.070;2022-11-20T10:58:37;1.00;;;0.63;;
16965;SDS011;8599;47.852;12.070;2022-11-20T11:01:13;0.60;;;0.60;;
16965;SDS011;8599;47.852;12.070;2022-11-20T11:03:43;0.40;;;0.40;;
16965;SDS011;8599;47.852;12.070;2022-11-20T11:06:13;0.30;;;0.30;;
16965;SDS011;8599;47.852;12.070;2022-11-20T11:08:47;0.40;;;0.40;;
16965;SDS011;8599;47.852;12.070;2022-11-20T11:11:21;0.30;;;0.30;;
16965;SDS011;8599;47.852;12.070;2022-11-20T11:13:50;0.40;;;0.40;;
16965;SDS011;8599;47.852;12.070;2022-11-20T11:16:20;0.40;;;0.40;;
16965;SDS011;8599;47.852;12.070;2022-11-20T11:18:50;0.70;;;0.70;;
16965;SDS011;8599;47.852;12.070;2022-11-20T11:21:21;0.80;;;0.80;;
16965;SDS011;8599;47.852;12.070;2022-11-20T11:23:56;0.30;;;0.30;;
16965;SDS011;8599;47.852;12.070;2022-11-20T11:26:25;1.17;;;1.07;;
16965;SDS011;8599;47.852;12.070;2022-11-20T11:28:53;6.57;;;3.30;;
16965;SDS011;8599;47.852;12.070;2022-11-20T11:31:22;8.17;;;3.50;;
16965;SDS011;8599;47.852;12.070;2022-11-20T11:33:51;4.40;;;1.47;;
16965;SDS011;8599;47.852;12.070;2022-11-20T11:36:20;0.90;;;0.77;;
16965;SDS011;8599;47.852;12.070;2022-11-20T11:38:50;1.23;;;1.23;;
16965;SDS011;8599;47.852;12.070;2022-11-20T11:41:20;1.13;;;1.03;;
16965;SDS011;8599;47.852;12.070;2022-11-20T11:43:51;0.80;;;0.80;;
16965;SDS011;8599;47.852;12.070;2022-11-20T11:46:38;0.40;;;0.40;;
16965;SDS011;8599;47.852;12.070;2022-11-20T11:49:14;0.50;;;0.50;;
16965;SDS011;8599;47.852;12.070;2022-11-20T11:51:46;1.70;;;0.60;;
16965;SDS011;8599;47.852;12.070;2022-11-20T11:54:23;1.00;;;0.70;;
16965;SDS011;8599;47.852;12.070;2022-11-20T11:56:54;2.47;;;0.90;;
16965;SDS011;8599;47.852;12.070;2022-11-20T11:59:26;0.77;;;0.57;;
16965;SDS011;8599;47.852;12.070;2022-11-20T12:01:59;0.37;;;0.37;;
16965;SDS011;8599;47.852;12.070;2022-11-20T12:04:37;0.30;;;0.30;;
16965;SDS011;8599;47.852;12.070;2022-11-20T12:07:10;0.50;;;0.50;;
16965;SDS011;8599;47.852;12.070;2022-11-20T12:09:43;0.33;;;0.33;;
16965;SDS011;8599;47.852;12.070;2022-11-20T12:12:15;0.50;;;0.40;;
16965;SDS011;8599;47.852;12.070;2022-11-20T12:14:46;0.47;;;0.37;;
16965;SDS011;8599;47.852;12.070;2022-11-20T12:17:15;0.70;;;0.63;;
16965;SDS011;8599;47.852;12.070;2022-11-20T12:19:44;0.47;;;0.40;;
16965;SDS011;8599;47.852;12.070;2022-11-20T12:22:13;0.40;;;0.40;;
16965;SDS011;8599;47.852;12.070;2022-11-20T12:24:52;0.53;;;0.50;;
16965;SDS011;8599;47.852;12.070;2022-11-20T12:27:35;0.30;;;0.30;;
16965;SDS011;8599;47.852;12.070;2022-11-20T12:30:19;1.40;;;1.30;;
16965;SDS011;8599;47.852;12.070;2022-11-20T12:36:01;0.50;;;0.50;;
16965;SDS011;8599;47.852;12.070;2022-11-20T12:44:38;0.50;;;0.50;;
16965;SDS011;8599;47.852;12.070;2022-11-20T12:47:54;1.13;;;0.90;;
16965;SDS011;8599;47.852;12.070;2022-11-20T12:50:40;1.53;;;0.90;;
16965;SDS011;8599;47.852;12.070;2022-11-20T12:53:22;1.00;;;0.90;;
16965;SDS011;8599;47.852;12.070;2022-11-20T12:55:58;1.80;;;1.57;;
16965;SDS011;8599;47.852;12.070;2022-11-20T12:58:32;0.73;;;0.70;;
16965;SDS011;8599;47.852;12.070;2022-11-20T13:01:05;1.27;;;1.10;;
16965;SDS011;8599;47.852;12.070;2022-11-20T13:04:06;0.60;;;0.60;;
16965;SDS011;8599;47.852;12.070;2022-11-20T13:06:38;1.03;;;0.87;;
16965;SDS011;8599;47.852;12.070;2022-11-20T13:09:08;1.20;;;1.00;;
16965;SDS011;8599;47.852;12.070;2022-11-20T13:11:39;1.97;;;1.40;;
16965;SDS011;8599;47.852;12.070;2022-11-20T13:14:17;1.30;;;1.20;;
16965;SDS011;8599;47.852;12.070;2022-11-20T13:16:57;0.80;;;0.80;;
16965;SDS011;8599;47.852;12.070;2022-11-20T13:19:26;0.60;;;0.60;;
16965;SDS011;8599;47.852;12.070;2022-11-20T13:21:54;0.77;;;0.63;;
16965;SDS011;8599;47.852;12.070;2022-11-20T13:24:24;0.50;;;0.50;;
16965;SDS011;8599;47.852;12.070;2022-11-20T13:27:05;2.67;;;0.63;;
16965;SDS011;8599;47.852;12.070;2022-11-20T13:29:47;4.50;;;3.33;;
16965;SDS011;8599;47.852;12.070;2022-11-20T13:32:26;1.50;;;1.30;;
16965;SDS011;8599;47.852;12.070;2022-11-20T13:34:57;1.93;;;1.00;;
16965;SDS011;8599;47.852;12.070;2022-11-20T13:37:27;2.13;;;0.93;;
16965;SDS011;8599;47.852;12.070;2022-11-20T13:40:20;0.63;;;0.63;;
16965;SDS011;8599;47.852;12.070;2022-11-20T13:42:55;1.10;;;1.00;;
16965;SDS011;8599;47.852;12.070;2022-11-20T13:45:28;3.23;;;0.90;;
16965;SDS011;8599;47.852;12.070;2022-11-20T13:47:56;0.80;;;0.80;;
16965;SDS011;8599;47.852;12.070;2022-11-20T13:50:32;0.97;;;0.97;;
16965;SDS011;8599;47.852;12.070;2022-11-20T13:53:12;1.63;;;1.00;;
16965;SDS011;8599;47.852;12.070;2022-11-20T13:55:57;0.90;;;0.83;;
16965;SDS011;8599;47.852;12.070;2022-11-20T13:58:40;1.60;;;1.17;;
16965;SDS011;8599;47.852;12.070;2022-11-20T14:01:16;1.93;;;1.30;;
16965;SDS011;8599;47.852;12.070;2022-11-20T14:03:45;1.03;;;0.93;;
16965;SDS011;8599;47.852;12.070;2022-11-20T14:06:14;0.70;;;0.70;;
16965;SDS011;8599;47.852;12.070;2022-11-20T14:08:52;3.30;;;0.83;;
16965;SDS011;8599;47.852;12.070;2022-11-20T14:11:22;0.50;;;0.50;;
16965;SDS011;8599;47.852;12.070;2022-11-20T14:13:52;0.73;;;0.70;;
16965;SDS011;8599;47.852;12.070;2022-11-20T14:16:20;2.03;;;1.27;;
16965;SDS011;8599;47.852;12.070;2022-11-20T14:18:47;1.13;;;0.77;;
16965;SDS011;8599;47.852;12.070;2022-11-20T14:21:20;0.83;;;0.80;;
16965;SDS011;8599;47.852;12.070;2022-11-20T14:23:49;1.40;;;1.13;;
16965;SDS011;8599;47.852;12.070;2022-11-20T14:26:19;1.60;;;1.30;;
16965;SDS011;8599;47.852;12.070;2022-11-20T14:28:48;1.17;;;1.07;;
16965;SDS011;8599;47.852;12.070;2022-11-20T14:31:18;2.07;;;1.40;;
16965;SDS011;8599;47.852;12.070;2022-11-20T14:33:49;2.60;;;1.30;;
16965;SDS011;8599;47.852;12.070;2022-11-20T14:36:17;0.60;;;0.60;;
16965;SDS011;8599;47.852;12.070;2022-11-20T14:38:46;1.03;;;0.77;;
16965;SDS011;8599;47.852;12.070;2022-11-20T14:41:17;1.83;;;1.03;;
16965;SDS011;8599;47.852;12.070;2022-11-20T14:43:47;0.80;;;0.80;;
16965;SDS011;8599;47.852;12.070;2022-11-20T14:46:17;0.77;;;0.77;;
16965;SDS011;8599;47.852;12.070;2022-11-20T14:48:45;0.70;;;0.50;;
16965;SDS011;8599;47.852;12.070;2022-11-20T14:51:23;0.73;;;0.70;;
16965;SDS011;8599;47.852;12.070;2022-11-20T14:53:54;1.00;;;0.70;;
16965;SDS011;8599;47.852;12.070;2022-11-20T14:56:21;0.60;;;0.60;;
16965;SDS011;8599;47.852;12.070;2022-11-20T14:58:56;0.50;;;0.50;;
16965;SDS011;8599;47.852;12.070;2022-11-20T15:01:27;1.27;;;0.90;;
16965;SDS011;8599;47.852;12.070;2022-11-20T15:03:59;2.17;;;1.30;;
16965;SDS011;8599;47.852;12.070;2022-11-20T15:06:27;2.20;;;1.10;;
16965;SDS011;8599;47.852;12.070;2022-11-20T15:08:55;0.90;;;0.90;;
16965;SDS011;8599;47.852;12.070;2022-11-20T15:11:25;3.83;;;1.77;;
16965;SDS011;8599;47.852;12.070;2022-11-20T15:13:57;5.07;;;2.00;;
16965;SDS011;8599;47.852;12.070;2022-11-20T15:16:27;4.60;;;1.60;;
16965;SDS011;8599;47.852;12.070;2022-11-20T15:18:54;2.07;;;1.70;;